首页
METAR-TAF:

METAR-TAF

机场 :

Adirondack Regional Airport

Saranac Lake, 紐約州, 美国

纬度: 44-23-35N, 经度: 074-12-10W, 海拔: 507米

当前天气观测

该预报发布于52分钟前的08:51 UTC
风速4节,风向
温度 6°C
湿度 75%
气压 1015 hPa
能見度: 16.1公里
阴天层高于2500英尺

METAR: KSLK 290851Z AUTO 09004KT 10SM OVC025 06/02 A2996 RMK AO2 SLP153 T00560017 58014

时间: 05:43 (09:43 UTC)

预报

该预报发布于4小时和7分钟前的05:36 UTC
预报有效从29日的 06点(UTC)到 30日的 06点(UTC)
风速4节,风向多变
能見度: 10公里
阴天层高于3000英尺
从 29日的 1200点(UTC)
风速9节,风向东转东南
能見度: 10公里
阴天层高于2500英尺
附近有阵雨
从 29日的 1400点(UTC)
风速10节,风向东南
能見度: 8.0公里
阴天层高于2500英尺
小雨, 轻雾
从 29日的 2100点(UTC)
风速10节,风向南转南东,有时为20节阵风
能見度: 10公里
阴天层高于4000英尺
小雨
从 30日的 0000点(UTC)
风速7节,风向
能見度: 8.0公里
阴天层高于2000英尺
小阵雨, 轻雾
从 30日的 0300点(UTC)
风速7节,风向
能見度: 8.0公里
阴天层高于1000英尺
小阵雨, 轻雾

TAF: KSLK 290536Z 2906/3006 VRB04KT P6SM OVC030 FM291200 11009KT P6SM VCSH OVC025 FM291400 13010KT 5SM -RA BR OVC025 WS020/15045KT FM292100 15010G20KT P6SM -RA OVC040 WS020/18050KT FM300000 17007KT 5SM -SHRA BR OVC020 WS020/19045KT FM300300 17007KT 5SM -SHRA BR OVC010

超过4000个机场的气象观测和天气预报(METAR&TAF报告)。

可查询的气象台以黄色和红色小点在地图上表示。

将鼠标移到小点上方,可查看气象台名称。

然后点击查看天气观测和预报。

如需切换地图:点击带黑十字的绿色按钮放大地图;点击带横线的绿色按钮缩小地图;或者点击绿色箭头查看邻近地区的地图。


METAR-TAF: